createdAt,value
2019-03-27T00:04:00.762Z,61.03
2019-03-27T00:09:06.745Z,61.50
2019-03-27T00:14:11.595Z,61.50
2019-03-27T00:19:16.356Z,60.76
2019-03-27T00:24:21.084Z,61.12
2019-03-27T00:29:25.752Z,60.85
2019-03-27T00:34:30.348Z,61.50
2019-03-27T00:39:35.179Z,61.18
2019-03-27T00:44:40.328Z,61.38
2019-03-27T00:50:25.541Z,61.38
2019-03-27T00:55:30.312Z,61.26
2019-03-27T01:01:02.306Z,60.93
2019-03-27T01:06:07.332Z,61.60
2019-03-27T01:11:12.025Z,61.87
2019-03-27T01:16:16.763Z,61.85
2019-03-27T01:21:21.473Z,62.19
2019-03-27T01:26:26.053Z,62.35
2019-03-27T01:31:30.795Z,62.35
2019-03-27T01:36:35.340Z,62.25
2019-03-27T01:41:39.996Z,62.54
2019-03-27T01:46:44.713Z,62.68
2019-03-27T01:51:49.291Z,62.72
2019-03-27T01:56:53.886Z,62.65
2019-03-27T02:01:58.505Z,62.65
2019-03-27T02:07:03.115Z,62.62
2019-03-27T02:12:07.739Z,62.44
2019-03-27T02:17:12.625Z,62.97
2019-03-27T02:22:17.199Z,62.92
2019-03-27T02:27:21.778Z,63.14
2019-03-27T02:32:26.444Z,63.14
2019-03-27T02:37:31.009Z,63.02
2019-03-27T02:42:35.732Z,63.38
2019-03-27T02:47:40.344Z,63.43
2019-03-27T02:52:45.062Z,63.43
2019-03-27T02:57:49.745Z,63.63
2019-03-27T03:02:54.352Z,63.63
2019-03-27T03:07:58.942Z,63.20
2019-03-27T03:13:03.694Z,63.73
2019-03-27T03:18:09.428Z,63.56
2019-03-27T03:23:14.006Z,63.56
2019-03-27T03:28:18.765Z,63.99
2019-03-27T03:33:23.374Z,63.99
2019-03-27T03:38:28.031Z,63.99
2019-03-27T03:43:32.737Z,64.22
2019-03-27T03:48:37.330Z,64.26
2019-03-27T03:53:41.989Z,63.79
2019-03-27T03:58:48.728Z,63.80
2019-03-27T04:03:55.356Z,64.20
2019-03-27T04:08:59.895Z,64.20
2019-03-27T04:14:04.583Z,64.46
2019-03-27T04:19:09.311Z,64.35
2019-03-27T04:24:13.967Z,64.07
2019-03-27T04:29:18.548Z,64.17
2019-03-27T04:34:23.132Z,64.17
2019-03-27T04:39:27.702Z,64.84
2019-03-27T04:44:32.319Z,64.84
2019-03-27T04:49:36.952Z,64.62
2019-03-27T04:54:41.538Z,64.72
2019-03-27T04:59:46.151Z,64.35
2019-03-27T05:04:50.937Z,64.52
2019-03-27T05:09:55.528Z,64.22
2019-03-27T05:15:00.247Z,64.47
2019-03-27T05:20:06.299Z,64.33
2019-03-27T05:25:11.006Z,64.50
2019-03-27T05:30:19.432Z,64.15
2019-03-27T05:35:24.150Z,64.46
2019-03-27T05:40:28.820Z,64.30
2019-03-27T05:45:33.528Z,64.55
2019-03-27T05:50:38.233Z,64.55
2019-03-27T05:55:42.833Z,64.29
2019-03-27T06:00:47.450Z,64.29
2019-03-27T06:05:52.129Z,64.43
2019-03-27T06:10:56.742Z,64.18
2019-03-27T06:16:01.480Z,64.17
2019-03-27T06:21:06.048Z,64.50
2019-03-27T06:26:10.677Z,64.50
2019-03-27T06:31:15.432Z,64.38
2019-03-27T06:36:20.069Z,64.22
2019-03-27T06:41:24.852Z,64.02
2019-03-27T06:46:29.588Z,63.91
2019-03-27T06:51:39.873Z,64.06
2019-03-27T06:56:40.536Z,64.05
2019-03-27T07:01:45.146Z,64.05
2019-03-27T07:06:49.749Z,64.08
2019-03-27T07:11:54.483Z,64.30
2019-03-27T07:16:59.153Z,64.30
2019-03-27T07:22:03.801Z,64.00
2019-03-27T07:27:08.446Z,64.32
2019-03-27T07:32:13.074Z,64.21
2019-03-27T07:37:17.673Z,63.88
2019-03-27T07:42:22.241Z,64.44
2019-03-27T07:47:26.893Z,63.99
2019-03-27T07:52:31.514Z,63.93
2019-03-27T07:57:36.389Z,64.29
2019-03-27T08:02:41.027Z,64.00
2019-03-27T08:07:45.712Z,64.32
2019-03-27T08:12:50.441Z,64.32
2019-03-27T08:17:55.133Z,63.77
2019-03-27T08:22:59.771Z,63.93
2019-03-27T08:28:04.448Z,63.77
2019-03-27T08:33:09.197Z,55.92
2019-03-27T08:38:15.160Z,58.60
2019-03-27T08:43:21.430Z,58.60
2019-03-27T08:48:26.140Z,58.86
2019-03-27T08:53:30.704Z,52.95
2019-03-27T08:58:35.244Z,52.95
2019-03-27T09:03:39.804Z,52.25
2019-03-27T09:08:44.343Z,53.72
2019-03-27T09:13:48.913Z,53.92
2019-03-27T09:18:53.475Z,53.92
2019-03-27T09:23:58.126Z,54.39
2019-03-27T09:29:02.806Z,54.71
2019-03-27T09:34:07.424Z,54.88
2019-03-27T09:39:12.134Z,55.42
2019-03-27T09:44:16.778Z,55.42
2019-03-27T09:49:21.312Z,55.99
2019-03-27T09:54:25.851Z,56.18
2019-03-27T09:59:30.478Z,56.84
2019-03-27T10:04:35.031Z,56.80
2019-03-27T10:09:39.591Z,56.83
2019-03-27T10:14:47.318Z,56.83
2019-03-27T10:20:02.722Z,57.33
2019-03-27T10:24:56.773Z,57.34
2019-03-27T10:30:01.331Z,55.41
2019-03-27T10:35:07.152Z,55.41
2019-03-27T10:40:11.964Z,55.90
2019-03-27T10:45:16.706Z,56.56
2019-03-27T10:50:21.538Z,56.56
2019-03-27T10:55:26.115Z,56.68
2019-03-27T11:00:30.830Z,56.79
2019-03-27T11:05:35.486Z,56.79
2019-03-27T11:10:40.115Z,57.53
2019-03-27T11:15:44.830Z,57.53
2019-03-27T11:20:49.394Z,57.51
2019-03-27T11:25:54.031Z,57.51
2019-03-27T11:30:58.669Z,57.97
2019-03-27T11:36:03.388Z,52.46
2019-03-27T11:41:08.121Z,53.22
2019-03-27T11:46:13.196Z,54.14
2019-03-27T11:51:17.832Z,54.59
2019-03-27T11:56:22.450Z,52.46
2019-03-27T12:01:38.952Z,50.96
2019-03-27T12:06:33.436Z,52.25
2019-03-27T12:11:38.122Z,52.25
2019-03-27T12:16:42.766Z,52.51
2019-03-27T12:21:47.417Z,52.88
2019-03-27T12:26:51.954Z,53.16
2019-03-27T12:31:56.621Z,53.04
2019-03-27T12:37:01.174Z,53.87
2019-03-27T12:42:05.792Z,53.97
2019-03-27T12:47:10.489Z,53.80
2019-03-27T12:52:15.176Z,54.16
2019-03-27T12:57:19.728Z,54.79
2019-03-27T13:02:24.351Z,55.29
2019-03-27T13:07:28.957Z,55.29
2019-03-27T13:12:33.509Z,54.54
2019-03-27T13:17:38.135Z,54.49
2019-03-27T13:22:42.755Z,54.20
2019-03-27T13:27:47.682Z,54.66
2019-03-27T13:32:52.393Z,54.92
2019-03-27T13:37:56.949Z,54.27
2019-03-27T13:43:01.496Z,55.24
2019-03-27T13:48:06.199Z,54.98
2019-03-27T13:53:10.764Z,54.92
2019-03-27T13:58:15.279Z,55.87
2019-03-27T14:03:19.808Z,55.85
2019-03-27T14:08:24.654Z,56.53
2019-03-27T14:13:29.274Z,55.86
2019-03-27T14:18:33.824Z,54.13
2019-03-27T14:23:38.554Z,54.13
2019-03-27T14:28:43.122Z,55.76
2019-03-27T14:33:47.765Z,54.86
2019-03-27T14:38:52.418Z,55.00
2019-03-27T14:43:56.958Z,55.00
2019-03-27T14:49:01.528Z,55.29
2019-03-27T14:54:06.368Z,55.29
2019-03-27T14:59:10.994Z,55.34
2019-03-27T15:04:15.707Z,55.00
2019-03-27T15:09:20.887Z,54.44
2019-03-27T15:14:25.583Z,55.29
2019-03-27T15:19:30.184Z,55.11
2019-03-27T15:24:34.904Z,54.34
2019-03-27T15:29:39.640Z,54.34
2019-03-27T15:34:44.379Z,53.98
2019-03-27T15:39:49.102Z,54.04
2019-03-27T15:44:53.879Z,54.35
2019-03-27T15:49:58.590Z,54.35
2019-03-27T15:55:03.568Z,53.84
2019-03-27T16:00:08.779Z,54.51
2019-03-27T16:05:13.568Z,54.20
2019-03-27T16:10:18.623Z,54.21
2019-03-27T16:15:23.344Z,54.16
2019-03-27T16:20:28.109Z,53.76
2019-03-27T16:25:32.674Z,53.76
2019-03-27T16:30:37.316Z,54.25
2019-03-27T16:35:41.887Z,53.67
2019-03-27T16:40:50.378Z,54.16
2019-03-27T16:45:55.160Z,54.13
2019-03-27T16:51:00.004Z,53.81
2019-03-27T16:56:04.784Z,53.89
2019-03-27T17:01:09.332Z,53.89
2019-03-27T17:06:14.826Z,53.87
2019-03-27T17:11:19.467Z,53.75
2019-03-27T17:16:24.177Z,53.75
2019-03-27T17:21:28.922Z,53.83
2019-03-27T17:26:33.687Z,53.12
2019-03-27T17:31:38.313Z,53.12
2019-03-27T17:36:42.926Z,53.24
2019-03-27T17:41:47.560Z,53.18
2019-03-27T17:46:52.200Z,54.15
2019-03-27T17:51:56.862Z,53.71
2019-03-27T17:57:01.397Z,54.49
2019-03-27T18:02:06.103Z,54.73
2019-03-27T18:07:10.737Z,54.79
2019-03-27T18:12:15.516Z,55.30
2019-03-27T18:17:20.143Z,55.30
2019-03-27T18:22:24.726Z,55.26
2019-03-27T18:27:29.403Z,54.07
2019-03-27T18:32:34.108Z,54.55
2019-03-27T18:37:38.737Z,55.37
2019-03-27T18:42:43.553Z,55.12
2019-03-27T18:47:48.088Z,55.88
2019-03-27T18:52:52.648Z,56.43
2019-03-27T18:58:00.308Z,56.48
2019-03-27T19:03:03.463Z,56.70
2019-03-27T19:08:08.129Z,56.21
2019-03-27T19:13:12.845Z,55.79
2019-03-27T19:18:17.452Z,55.83
2019-03-27T19:23:22.008Z,55.83
2019-03-27T19:28:26.589Z,54.54
2019-03-27T19:33:31.126Z,54.77
2019-03-27T19:38:35.971Z,55.34
2019-03-27T19:43:40.610Z,55.25
2019-03-27T19:48:45.152Z,55.08
2019-03-27T19:53:49.693Z,55.47
2019-03-27T19:59:02.084Z,55.57
2019-03-27T20:04:07.048Z,55.57
2019-03-27T20:09:11.644Z,55.38
2019-03-27T20:14:16.303Z,55.68
2019-03-27T20:19:20.881Z,55.68
2019-03-27T20:24:25.583Z,55.84
2019-03-27T20:29:30.114Z,55.54
2019-03-27T20:34:34.664Z,55.79
2019-03-27T20:39:42.434Z,55.79
2019-03-27T20:44:45.570Z,55.59
2019-03-27T20:49:50.125Z,55.71
2019-03-27T20:54:55.578Z,55.93
2019-03-27T21:00:00.394Z,55.85
2019-03-27T21:05:05.785Z,56.39
2019-03-27T21:10:11.030Z,56.93
2019-03-27T21:15:15.848Z,57.14
2019-03-27T21:20:20.411Z,56.92
2019-03-27T21:25:25.025Z,56.98
2019-03-27T21:30:29.593Z,57.48
2019-03-27T21:35:34.222Z,57.13
2019-03-27T21:40:38.827Z,57.03
2019-03-27T21:45:43.397Z,56.70
2019-03-27T21:50:48.118Z,56.84
2019-03-27T21:55:52.700Z,57.30
2019-03-27T22:00:57.271Z,57.69
2019-03-27T22:06:01.845Z,57.69
2019-03-27T22:11:06.501Z,58.14
2019-03-27T22:16:11.115Z,57.95
2019-03-27T22:21:15.941Z,58.05
2019-03-27T22:26:20.543Z,57.81
2019-03-27T22:31:25.221Z,57.19
2019-03-27T22:36:29.925Z,57.19
2019-03-27T22:41:34.547Z,57.49
2019-03-27T22:46:39.175Z,57.52
2019-03-27T22:51:43.911Z,57.75
2019-03-27T22:56:48.528Z,57.75
2019-03-27T23:01:53.309Z,57.40
2019-03-27T23:06:57.935Z,57.18
2019-03-27T23:12:02.503Z,57.18
2019-03-27T23:17:07.080Z,57.73
2019-03-27T23:22:11.678Z,57.06
2019-03-27T23:27:16.280Z,57.35
2019-03-27T23:32:20.870Z,57.93
2019-03-27T23:37:25.499Z,57.59
2019-03-27T23:42:30.039Z,57.59
2019-03-27T23:47:34.675Z,57.88
2019-03-27T23:52:39.248Z,58.70
2019-03-27T23:57:43.922Z,58.25
